createdAt,value
2017-05-10T05:34:14.569Z,90
2017-05-10T05:34:46.829Z,90
2017-05-10T05:35:19.985Z,85
2017-05-10T05:35:52.235Z,80
2017-05-10T05:36:24.479Z,80
2017-05-10T05:36:56.738Z,85
2017-05-10T05:37:29.906Z,85
2017-05-10T05:38:02.158Z,95
2017-05-10T05:38:35.108Z,90
2017-05-10T05:39:07.353Z,85
2017-05-10T05:39:39.613Z,80
2017-05-10T05:40:12.489Z,80
2017-05-10T05:40:45.062Z,80
2017-05-10T05:41:17.304Z,75
2017-05-10T05:41:49.547Z,95
2017-05-10T05:42:21.815Z,95
2017-05-10T05:42:54.086Z,100
2017-05-10T05:43:26.340Z,100
2017-05-10T05:43:59.508Z,105
2017-05-10T05:44:32.408Z,105
2017-05-10T05:45:04.670Z,90
2017-05-10T05:45:36.930Z,105
2017-05-10T05:46:10.508Z,105
2017-05-10T05:46:42.880Z,105
2017-05-10T05:47:15.118Z,105
2017-05-10T05:47:47.889Z,105
2017-05-10T05:48:20.138Z,105
2017-05-10T05:48:52.702Z,105
2017-05-10T05:49:24.982Z,105
2017-05-10T05:49:57.258Z,105
2017-05-10T05:50:29.504Z,105
2017-05-10T05:51:01.796Z,105
2017-05-10T05:51:34.176Z,105
2017-05-10T05:52:07.055Z,100
2017-05-10T05:52:39.325Z,95
2017-05-10T05:53:11.908Z,90
2017-05-10T05:53:44.198Z,90
2017-05-10T05:54:16.484Z,85
2017-05-10T05:54:48.752Z,85
2017-05-10T05:55:21.003Z,85
2017-05-10T05:55:53.300Z,85
2017-05-10T05:56:25.579Z,80
2017-05-10T05:56:57.964Z,80
2017-05-10T05:57:30.219Z,80
2017-05-10T05:58:04.002Z,85
2017-05-10T05:58:36.272Z,85
2017-05-10T05:59:09.451Z,85
2017-05-10T05:59:42.570Z,85
2017-05-10T06:00:15.717Z,80
2017-05-10T06:00:48.070Z,75
2017-05-10T06:01:20.699Z,65
2017-05-10T06:01:52.954Z,65
2017-05-10T06:02:26.568Z,65
2017-05-10T06:02:58.960Z,65
2017-05-10T06:03:31.257Z,65
2017-05-10T06:04:04.447Z,70
2017-05-10T06:04:36.802Z,75
2017-05-10T06:05:09.063Z,80
2017-05-10T06:05:41.377Z,80
2017-05-10T06:06:13.625Z,75
2017-05-10T06:06:46.402Z,70
2017-05-10T06:07:20.070Z,70
2017-05-10T06:07:52.447Z,70
2017-05-10T06:08:24.720Z,70
2017-05-10T06:08:57.970Z,70
2017-05-10T06:09:30.236Z,70
2017-05-10T06:10:03.563Z,75
2017-05-10T06:10:35.827Z,75
2017-05-10T06:11:09.995Z,75
2017-05-10T06:11:42.280Z,75
2017-05-10T06:12:14.730Z,70
2017-05-10T06:12:47.029Z,75
2017-05-10T06:13:19.526Z,75
2017-05-10T06:13:51.821Z,75
2017-05-10T06:14:24.100Z,75
2017-05-10T06:14:56.492Z,75
2017-05-10T06:15:28.813Z,75
2017-05-10T06:16:01.248Z,75
2017-05-10T06:16:33.857Z,75
2017-05-10T06:17:06.327Z,75
2017-05-10T06:17:38.941Z,75
2017-05-10T06:19:30.692Z,75
2017-05-10T06:20:03.578Z,70
2017-05-10T06:20:36.258Z,70
2017-05-10T06:21:08.567Z,75
2017-05-10T06:21:40.988Z,75
2017-05-10T06:22:13.270Z,75
2017-05-10T06:22:45.772Z,75
2017-05-10T06:23:18.084Z,75
2017-05-10T06:23:50.352Z,75
2017-05-10T06:24:24.083Z,80
2017-05-10T06:24:56.972Z,80
2017-05-10T06:25:29.246Z,80
2017-05-10T06:26:01.531Z,80
2017-05-10T06:26:35.098Z,75
2017-05-10T06:27:07.950Z,70
2017-05-10T06:27:40.295Z,65
2017-05-10T06:28:12.572Z,65
2017-05-10T06:28:45.545Z,65
2017-05-10T06:29:18.647Z,65
2017-05-10T06:29:51.073Z,70
2017-05-10T06:30:23.378Z,70
2017-05-10T06:30:56.582Z,70
2017-05-10T06:31:28.967Z,70
2017-05-10T06:32:02.048Z,70
2017-05-10T06:32:34.376Z,65
2017-05-10T06:33:06.657Z,65
2017-05-10T06:33:38.940Z,65
2017-05-10T06:34:11.322Z,65
2017-05-10T06:34:43.616Z,65
2017-05-10T06:35:15.917Z,65
2017-05-10T06:35:48.238Z,65
2017-05-10T06:36:20.507Z,65
2017-05-10T06:36:52.796Z,70
2017-05-10T06:37:25.079Z,70
2017-05-10T06:37:57.352Z,70
2017-05-10T06:38:29.627Z,70
2017-05-10T06:39:01.902Z,70
2017-05-10T06:39:34.183Z,75
2017-05-10T06:40:06.480Z,75
2017-05-10T06:40:38.774Z,80
2017-05-10T06:41:11.057Z,80
2017-05-10T06:41:43.334Z,80
2017-05-10T06:42:15.636Z,80
2017-05-10T06:42:47.929Z,75
2017-05-10T06:43:20.238Z,75
2017-05-10T06:43:52.523Z,75
2017-05-10T06:44:24.810Z,75
2017-05-10T06:44:57.106Z,80
2017-05-10T06:45:29.385Z,80
2017-05-10T06:46:01.703Z,75
2017-05-10T06:46:35.088Z,75
2017-05-10T06:47:07.544Z,75
2017-05-10T06:47:40.068Z,80
2017-05-10T06:48:12.689Z,80
2017-05-10T06:48:45.342Z,80
2017-05-10T06:49:17.999Z,80
2017-05-10T06:49:50.470Z,85
2017-05-10T06:50:22.951Z,85
2017-05-10T06:51:00.572Z,85
2017-05-10T06:51:38.887Z,85
2017-05-10T06:52:11.184Z,85
2017-05-10T06:52:43.483Z,85
2017-05-10T06:53:15.756Z,90
2017-05-10T06:53:48.543Z,90
2017-05-10T06:54:21.552Z,90
2017-05-10T06:54:55.019Z,90
2017-05-10T06:55:27.293Z,85
2017-05-10T06:56:00.503Z,85
2017-05-10T06:56:34.066Z,85
2017-05-10T06:57:06.350Z,85
2017-05-10T06:57:39.477Z,90
2017-05-10T06:58:13.542Z,90
2017-05-10T06:58:46.565Z,90
2017-05-10T06:59:19.607Z,85
2017-05-10T06:59:51.970Z,85
2017-05-10T07:00:24.253Z,85
2017-05-10T07:00:56.533Z,85
2017-05-10T07:01:28.794Z,85
2017-05-10T07:02:01.617Z,90
2017-05-10T07:02:33.936Z,90
2017-05-10T07:03:06.259Z,90
2017-05-10T07:03:38.544Z,90
2017-05-10T07:04:10.828Z,90
2017-05-10T07:04:43.119Z,90
2017-05-10T07:05:15.420Z,90
2017-05-10T07:05:47.712Z,90
2017-05-10T07:07:39.904Z,95
2017-05-10T07:08:12.245Z,95
2017-05-10T07:08:44.584Z,95
2017-05-10T07:09:16.918Z,95
2017-05-10T07:09:49.216Z,95
2017-05-10T07:10:21.505Z,95
2017-05-10T07:10:53.813Z,95
2017-05-10T07:12:45.689Z,95
2017-05-10T07:13:18.011Z,90
2017-05-10T07:13:50.315Z,85
2017-05-10T07:15:42.153Z,90
2017-05-10T07:16:14.504Z,95
2017-05-10T07:16:46.865Z,100
2017-05-10T07:17:19.153Z,100
2017-05-10T07:17:51.535Z,100
2017-05-10T07:18:23.849Z,100
2017-05-10T07:18:56.162Z,100
2017-05-10T07:19:28.491Z,100
2017-05-10T07:20:00.831Z,100
2017-05-10T07:20:33.156Z,100
2017-05-10T07:21:05.487Z,100
2017-05-10T07:21:37.781Z,100
2017-05-10T07:22:10.090Z,95
2017-05-10T07:22:42.408Z,95
2017-05-10T07:23:14.700Z,95
2017-05-10T07:23:46.709Z,95
2017-05-10T07:24:19.044Z,95
2017-05-10T07:26:10.522Z,95
2017-05-10T07:26:42.823Z,100
2017-05-10T07:27:15.107Z,100
2017-05-10T07:27:47.394Z,105
2017-05-10T07:28:19.676Z,105
2017-05-10T07:28:51.952Z,105
2017-05-10T07:29:24.254Z,105
2017-05-10T07:29:56.556Z,105
2017-05-10T07:30:28.849Z,105
2017-05-10T07:31:01.132Z,110
2017-05-10T07:31:33.428Z,115
2017-05-10T07:32:05.688Z,115
2017-05-10T07:32:37.933Z,120
2017-05-10T07:33:10.235Z,115
2017-05-10T07:33:42.513Z,115
2017-05-10T07:34:14.777Z,115
2017-05-10T07:34:47.056Z,115
2017-05-10T07:35:20.996Z,110
2017-05-10T07:35:54.632Z,110
2017-05-10T07:36:26.872Z,115
2017-05-10T07:37:00.068Z,120
2017-05-10T07:37:32.313Z,125
2017-05-10T07:38:04.575Z,125
2017-05-10T07:38:37.530Z,125
2017-05-10T07:39:09.793Z,125
2017-05-10T07:39:42.032Z,125
2017-05-10T07:40:14.268Z,125
2017-05-10T07:40:46.521Z,125
2017-05-10T07:41:19.475Z,125
2017-05-10T07:41:51.711Z,120
2017-05-10T07:42:23.980Z,120
2017-05-10T07:42:56.241Z,120
2017-05-10T07:43:28.546Z,120
2017-05-10T07:44:00.805Z,115
2017-05-10T07:44:33.041Z,115
2017-05-10T07:45:05.293Z,110
2017-05-10T07:45:37.551Z,110
2017-05-10T07:46:09.799Z,110
2017-05-10T07:46:42.031Z,110
2017-05-10T07:47:14.415Z,115
2017-05-10T07:47:46.682Z,115
2017-05-10T07:48:18.920Z,115
2017-05-10T07:48:51.156Z,120
2017-05-10T07:49:23.396Z,120
2017-05-10T07:49:55.640Z,125
2017-05-10T07:50:27.903Z,125
2017-05-10T07:51:00.164Z,125
2017-05-10T07:51:32.470Z,130
2017-05-10T07:52:04.758Z,130
2017-05-10T07:52:37.037Z,130
2017-05-10T07:53:09.326Z,130
2017-05-10T07:53:41.615Z,135
2017-05-10T07:54:13.898Z,135
2017-05-10T07:54:46.220Z,135
2017-05-10T07:55:18.552Z,145
2017-05-10T07:55:50.855Z,145
2017-05-10T07:56:23.144Z,135
2017-05-10T07:56:55.450Z,135
2017-05-10T07:57:27.756Z,130
2017-05-10T07:58:00.044Z,130
2017-05-10T07:58:32.325Z,130
2017-05-10T07:59:04.628Z,125
2017-05-10T07:59:36.921Z,130
2017-05-10T08:00:09.214Z,145
2017-05-10T08:00:41.512Z,125
2017-05-10T08:01:13.800Z,125
2017-05-10T08:01:46.099Z,125
2017-05-10T08:02:18.349Z,125
2017-05-10T08:02:50.691Z,130
2017-05-10T08:03:22.954Z,130
2017-05-10T08:03:55.206Z,130
2017-05-10T08:04:27.446Z,130
2017-05-10T08:04:59.707Z,135
2017-05-10T08:05:32.915Z,135
2017-05-10T08:06:05.254Z,135
2017-05-10T08:06:37.542Z,135
2017-05-10T08:07:09.806Z,135
2017-05-10T08:07:42.088Z,135
2017-05-10T08:08:15.610Z,130
2017-05-10T08:08:48.566Z,125
2017-05-10T08:09:21.531Z,125
2017-05-10T08:09:55.521Z,125
2017-05-10T08:10:27.784Z,125
2017-05-10T08:11:00.962Z,120
2017-05-10T08:11:33.218Z,120
2017-05-10T08:12:05.546Z,120
2017-05-10T08:12:37.818Z,125
2017-05-10T08:13:10.103Z,120
2017-05-10T08:13:42.424Z,115
2017-05-10T08:14:14.740Z,110
2017-05-10T08:14:47.029Z,110
2017-05-10T08:15:19.305Z,110
2017-05-10T08:15:51.604Z,105
2017-05-10T08:17:43.178Z,115
2017-05-10T08:18:15.465Z,125
2017-05-10T08:18:47.758Z,130
2017-05-10T08:19:20.056Z,135
2017-05-10T08:19:52.347Z,135
2017-05-10T08:20:24.640Z,135
2017-05-10T08:20:56.921Z,135
2017-05-10T08:21:29.211Z,135
2017-05-10T08:22:01.500Z,135
2017-05-10T08:22:33.795Z,135
2017-05-10T08:23:06.087Z,140
2017-05-10T08:23:38.413Z,140
2017-05-10T08:24:10.736Z,145
2017-05-10T08:26:02.702Z,145
2017-05-10T08:26:35.008Z,145
2017-05-10T08:27:07.305Z,140
2017-05-10T08:27:39.612Z,140
2017-05-10T08:28:11.934Z,140
2017-05-10T08:28:44.221Z,140
2017-05-10T08:31:55.739Z,140
2017-05-10T08:32:28.031Z,140
2017-05-10T08:33:00.325Z,145
2017-05-10T08:33:32.636Z,145
2017-05-10T08:34:04.982Z,145
2017-05-10T08:34:37.273Z,140
2017-05-10T08:35:09.561Z,135
2017-05-10T08:35:41.840Z,130
2017-05-10T08:37:33.696Z,135
2017-05-10T08:38:05.996Z,140
2017-05-10T08:38:38.535Z,140
2017-05-10T08:39:10.566Z,140
2017-05-10T08:39:42.851Z,140
2017-05-10T08:41:34.651Z,140
2017-05-10T08:42:06.946Z,140
2017-05-10T08:42:39.371Z,140
2017-05-10T08:43:11.680Z,140
2017-05-10T08:43:43.976Z,140
2017-05-10T08:44:16.276Z,140
2017-05-10T08:44:48.582Z,140
2017-05-10T08:45:20.889Z,140
2017-05-10T08:45:53.155Z,140
2017-05-10T08:46:25.445Z,135
2017-05-10T08:46:57.739Z,135
2017-05-10T08:47:30.034Z,135
2017-05-10T08:48:02.319Z,135
2017-05-10T08:48:34.614Z,135
2017-05-10T08:50:26.249Z,130
2017-05-10T08:50:58.577Z,130
2017-05-10T08:51:32.328Z,125
2017-05-10T08:52:04.624Z,125
2017-05-10T08:52:36.651Z,130
2017-05-10T08:53:08.937Z,130
2017-05-10T08:53:41.236Z,125
2017-05-10T08:54:13.515Z,125
2017-05-10T08:54:45.861Z,125
2017-05-10T08:55:17.854Z,125
2017-05-10T08:55:50.205Z,125
2017-05-10T08:56:22.496Z,130
2017-05-10T08:56:54.831Z,135
2017-05-10T08:57:27.100Z,135
2017-05-10T08:57:59.450Z,140
2017-05-10T08:58:31.757Z,150
2017-05-10T08:59:04.060Z,150
2017-05-10T08:59:36.330Z,155
2017-05-10T09:00:08.635Z,155
2017-05-10T09:00:40.932Z,155
2017-05-10T09:01:13.232Z,160
2017-05-10T09:01:45.543Z,155
2017-05-10T09:02:17.812Z,155
2017-05-10T09:02:50.122Z,150
2017-05-10T09:03:23.102Z,150
2017-05-10T09:03:56.075Z,145
2017-05-10T09:04:28.360Z,145
2017-05-10T09:05:04.137Z,140
2017-05-10T09:05:36.414Z,140
2017-05-10T09:06:08.689Z,140
2017-05-10T09:06:40.948Z,140
2017-05-10T09:07:13.995Z,140
2017-05-10T09:07:46.283Z,140
2017-05-10T09:08:18.668Z,140
2017-05-10T09:08:50.962Z,140
2017-05-10T09:09:24.145Z,140
2017-05-10T09:09:56.442Z,135
2017-05-10T09:10:29.228Z,135
2017-05-10T09:11:01.487Z,135
2017-05-10T09:11:34.688Z,135
2017-05-10T09:12:06.989Z,135
2017-05-10T09:12:39.311Z,135
2017-05-10T09:13:11.590Z,135
2017-05-10T09:13:43.906Z,140
2017-05-10T09:14:16.237Z,140
2017-05-10T09:14:48.528Z,140
2017-05-10T09:15:21.012Z,140
2017-05-10T09:15:53.309Z,140
2017-05-10T09:16:25.625Z,145
2017-05-10T09:16:57.925Z,150
2017-05-10T09:17:30.276Z,150
2017-05-10T09:18:02.593Z,155
2017-05-10T09:18:34.897Z,155
2017-05-10T09:19:07.407Z,155
2017-05-10T09:19:39.690Z,155
2017-05-10T09:20:11.959Z,155
2017-05-10T09:20:44.256Z,155
2017-05-10T09:21:16.539Z,155
2017-05-10T09:21:48.860Z,155
2017-05-10T09:22:21.138Z,155
2017-05-10T09:22:53.433Z,155
2017-05-10T09:23:25.707Z,160
2017-05-10T09:23:58.027Z,160
2017-05-10T09:24:30.335Z,160
2017-05-10T09:25:02.640Z,160
2017-05-10T09:25:34.973Z,155
2017-05-10T09:26:07.241Z,155
2017-05-10T09:26:39.540Z,150
2017-05-10T09:27:11.833Z,150
2017-05-10T09:27:44.125Z,150
2017-05-10T09:28:16.421Z,150
2017-05-10T09:28:48.730Z,150
2017-05-10T09:29:21.012Z,145
2017-05-10T09:29:53.313Z,145
2017-05-10T09:30:25.605Z,145
2017-05-10T09:30:57.897Z,145
2017-05-10T09:31:30.205Z,150
2017-05-10T09:32:02.495Z,155
2017-05-10T09:32:34.751Z,155
2017-05-10T09:33:07.023Z,155
2017-05-10T09:33:39.256Z,150
2017-05-10T09:34:11.503Z,150
2017-05-10T09:34:43.759Z,145
2017-05-10T09:35:16.012Z,145
2017-05-10T09:35:48.396Z,145
2017-05-10T09:36:20.649Z,145
2017-05-10T09:36:52.910Z,145
2017-05-10T09:37:25.165Z,145
2017-05-10T09:37:58.754Z,145
2017-05-10T09:38:31.005Z,145
2017-05-10T09:39:03.248Z,140
2017-05-10T09:39:35.651Z,135
2017-05-10T09:40:07.966Z,135
2017-05-10T09:40:40.218Z,135
2017-05-10T09:41:12.457Z,135
2017-05-10T09:41:45.531Z,135
2017-05-10T09:42:17.785Z,135
2017-05-10T09:42:50.031Z,135
2017-05-10T09:43:22.335Z,140
2017-05-10T09:43:54.598Z,140
2017-05-10T09:44:26.860Z,140
2017-05-10T09:44:59.108Z,145
2017-05-10T09:45:31.358Z,145
2017-05-10T09:46:03.596Z,145
2017-05-10T09:46:35.939Z,145
2017-05-10T09:47:08.211Z,145
2017-05-10T09:47:40.464Z,145
2017-05-10T09:48:13.587Z,145
2017-05-10T09:48:46.665Z,145
2017-05-10T09:49:18.952Z,145
2017-05-10T09:49:51.188Z,145
2017-05-10T09:50:24.203Z,145
2017-05-10T09:50:56.458Z,145
2017-05-10T09:51:28.711Z,145
2017-05-10T09:52:00.961Z,145
2017-05-10T09:52:33.208Z,145
2017-05-10T09:53:05.462Z,145
2017-05-10T09:53:37.707Z,145
2017-05-10T09:54:09.984Z,140
2017-05-10T09:54:42.238Z,140
2017-05-10T09:55:14.481Z,140
2017-05-10T09:55:46.728Z,135
2017-05-10T09:56:19.718Z,135
2017-05-10T09:56:51.999Z,135
2017-05-10T09:57:24.272Z,135
2017-05-10T09:57:56.536Z,135
2017-05-10T09:58:28.830Z,135
2017-05-10T09:59:01.710Z,135
2017-05-10T09:59:34.640Z,140
2017-05-10T10:00:07.631Z,145
2017-05-10T10:00:40.600Z,145
2017-05-10T10:01:12.881Z,150
2017-05-10T10:01:53.464Z,155
2017-05-10T10:03:45.163Z,170
2017-05-10T10:04:17.452Z,175
2017-05-10T10:04:49.732Z,180
2017-05-10T10:05:22.035Z,180
2017-05-10T10:05:54.315Z,185
2017-05-10T10:06:26.595Z,180
2017-05-10T10:06:58.900Z,180
2017-05-10T10:07:31.191Z,175
2017-05-10T10:08:04.616Z,175
2017-05-10T10:08:36.900Z,175
2017-05-10T10:09:09.166Z,175
2017-05-10T10:11:02.298Z,170
2017-05-10T10:11:34.594Z,170
2017-05-10T10:12:08.787Z,170
2017-05-10T10:12:42.716Z,170
2017-05-10T10:14:34.917Z,170
2017-05-10T10:17:46.212Z,170
2017-05-10T10:18:18.501Z,170
2017-05-10T10:18:54.180Z,170
2017-05-10T10:19:28.512Z,170
2017-05-10T10:20:00.793Z,170
2017-05-10T10:20:33.081Z,175
2017-05-10T10:21:05.365Z,175
2017-05-10T10:21:37.641Z,175
2017-05-10T10:22:09.900Z,170
2017-05-10T10:22:42.686Z,170
2017-05-10T10:23:14.936Z,170
2017-05-10T10:23:47.195Z,170
2017-05-10T10:24:19.457Z,175
2017-05-10T10:24:53.099Z,175
2017-05-10T10:25:25.358Z,175
2017-05-10T10:25:58.666Z,175
2017-05-10T10:26:30.966Z,170
2017-05-10T10:27:03.218Z,170
2017-05-10T10:27:35.466Z,170
2017-05-10T10:28:07.734Z,170
2017-05-10T10:28:39.981Z,170
2017-05-10T10:29:12.256Z,170
2017-05-10T10:29:44.513Z,175
2017-05-10T10:30:16.766Z,175
2017-05-10T10:30:52.372Z,180
2017-05-10T10:31:50.281Z,185
2017-05-10T10:33:58.627Z,200
2017-05-10T10:34:32.990Z,200
2017-05-10T10:35:08.166Z,200
2017-05-10T10:35:41.818Z,200
2017-05-10T10:36:15.482Z,200
2017-05-10T10:36:48.951Z,200
2017-05-10T10:37:21.663Z,195
2017-05-10T10:37:55.318Z,200
2017-05-10T10:38:29.107Z,220
2017-05-10T10:39:02.511Z,200
2017-05-10T10:39:36.548Z,195
2017-05-10T10:40:10.611Z,195
2017-05-10T10:40:42.904Z,200
2017-05-10T10:41:15.305Z,200
2017-05-10T10:41:47.607Z,200
2017-05-10T10:42:19.896Z,200
2017-05-10T10:42:52.196Z,195
2017-05-10T10:43:24.510Z,190
2017-05-10T10:43:56.822Z,190
2017-05-10T10:44:29.098Z,195
2017-05-10T10:45:01.386Z,195
2017-05-10T10:45:33.710Z,200
2017-05-10T10:46:05.990Z,205
2017-05-10T10:46:38.292Z,200
2017-05-10T10:47:10.584Z,205
2017-05-10T10:47:42.916Z,210
2017-05-10T10:48:15.235Z,210
2017-05-10T10:48:47.541Z,210
2017-05-10T10:49:19.825Z,215
2017-05-10T10:49:52.119Z,220
2017-05-10T10:50:24.413Z,225
2017-05-10T10:50:56.698Z,230
2017-05-10T10:51:28.988Z,230
2017-05-10T10:52:01.297Z,230
2017-05-10T10:52:33.606Z,230
2017-05-10T10:53:05.855Z,225
2017-05-10T10:53:38.734Z,225
2017-05-10T10:54:10.998Z,220
2017-05-10T10:54:43.253Z,220
2017-05-10T10:55:15.511Z,215
2017-05-10T10:55:47.754Z,215
2017-05-10T10:56:20.707Z,215
2017-05-10T10:56:52.991Z,210
2017-05-10T10:57:26.028Z,210
2017-05-10T10:57:58.300Z,210
2017-05-10T10:58:30.557Z,210
2017-05-10T10:59:02.935Z,210
2017-05-10T10:59:35.185Z,210
2017-05-10T11:00:08.028Z,210
2017-05-10T11:00:40.311Z,210
2017-05-10T11:01:13.756Z,210
2017-05-10T11:01:46.045Z,215
2017-05-10T11:02:18.312Z,215
2017-05-10T11:02:50.566Z,215
2017-05-10T11:03:22.862Z,210
2017-05-10T11:03:55.713Z,210
2017-05-10T11:04:28.640Z,205
2017-05-10T11:05:02.798Z,200
2017-05-10T11:05:35.060Z,200
2017-05-10T11:06:08.241Z,205
2017-05-10T11:06:40.495Z,210
2017-05-10T11:07:12.739Z,215
2017-05-10T11:07:44.999Z,225
2017-05-10T11:08:18.253Z,230
2017-05-10T11:08:50.635Z,240
2017-05-10T11:09:22.972Z,245
2017-05-10T11:09:55.323Z,270
2017-05-10T11:10:28.774Z,260
2017-05-10T11:11:01.011Z,255
2017-05-10T11:11:33.316Z,255
2017-05-10T11:12:05.575Z,255
2017-05-10T11:12:38.587Z,255
2017-05-10T11:13:10.838Z,250
2017-05-10T11:13:43.092Z,290
2017-05-10T11:14:15.355Z,225
2017-05-10T11:14:47.614Z,215
2017-05-10T11:15:19.868Z,205
2017-05-10T11:15:52.136Z,195
2017-05-10T11:16:24.441Z,190
2017-05-10T11:16:56.702Z,180
2017-05-10T11:17:28.966Z,175
2017-05-10T11:18:01.240Z,175
2017-05-10T11:18:33.514Z,170
2017-05-10T11:19:05.772Z,170
2017-05-10T11:19:38.016Z,170
2017-05-10T11:20:10.461Z,165
2017-05-10T11:20:42.747Z,165
2017-05-10T11:21:15.039Z,170
2017-05-10T11:21:47.296Z,170
2017-05-10T11:22:19.656Z,170
2017-05-10T11:22:51.895Z,165
2017-05-10T11:23:24.140Z,170
2017-05-10T11:23:56.387Z,175
2017-05-10T11:24:28.630Z,175
2017-05-10T11:25:00.905Z,175
2017-05-10T11:25:33.175Z,175
2017-05-10T11:26:05.478Z,175
2017-05-10T11:26:38.266Z,180
2017-05-10T11:27:12.227Z,180
2017-05-10T11:27:44.519Z,190
2017-05-10T11:28:17.573Z,195
2017-05-10T11:28:49.833Z,195
2017-05-10T11:29:22.095Z,200
2017-05-10T11:29:54.340Z,205
2017-05-10T11:30:26.664Z,205
2017-05-10T11:30:59.651Z,225
2017-05-10T11:31:31.915Z,205
2017-05-10T11:32:04.185Z,200
2017-05-10T11:32:37.098Z,200
2017-05-10T11:33:09.358Z,200
2017-05-10T11:33:41.608Z,200
2017-05-10T11:34:15.219Z,200
2017-05-10T11:34:47.495Z,200
2017-05-10T11:35:19.766Z,210
2017-05-10T11:35:52.652Z,210
2017-05-10T11:36:24.910Z,215
2017-05-10T11:36:57.170Z,220
2017-05-10T11:37:29.487Z,220
2017-05-10T11:38:01.729Z,220
2017-05-10T11:38:34.026Z,225
2017-05-10T11:39:06.266Z,230
2017-05-10T11:39:38.522Z,230
2017-05-10T11:40:10.821Z,240
2017-05-10T11:40:43.075Z,240
2017-05-10T11:41:15.334Z,240
2017-05-10T11:41:47.600Z,245
2017-05-10T11:42:19.842Z,255
2017-05-10T11:42:52.127Z,250
2017-05-10T11:43:24.425Z,255
2017-05-10T11:43:56.715Z,260
2017-05-10T11:44:29.001Z,260
2017-05-10T11:45:01.309Z,265
2017-05-10T11:45:33.620Z,265
2017-05-10T11:46:05.907Z,270
2017-05-10T11:46:38.186Z,290
2017-05-10T11:47:10.486Z,295
2017-05-10T11:47:42.778Z,380
2017-05-10T11:48:15.058Z,400
2017-05-10T11:48:47.358Z,260
2017-05-10T11:49:19.652Z,245
2017-05-10T11:49:51.947Z,240
2017-05-10T11:50:24.254Z,240
2017-05-10T11:50:56.537Z,240
2017-05-10T11:51:28.842Z,245
2017-05-10T11:52:01.152Z,240
2017-05-10T11:52:33.438Z,240
2017-05-10T11:53:07.162Z,245
2017-05-10T11:53:39.412Z,250
2017-05-10T11:54:11.659Z,250
2017-05-10T11:54:43.929Z,255
2017-05-10T11:55:16.198Z,255
2017-05-10T11:55:48.461Z,260
2017-05-10T11:56:20.755Z,265
2017-05-10T11:56:53.011Z,285
2017-05-10T11:57:25.284Z,285
2017-05-10T11:57:57.546Z,295
2017-05-10T11:58:29.820Z,295
2017-05-10T11:59:02.089Z,300
2017-05-10T11:59:34.337Z,305
2017-05-10T12:00:06.613Z,305
2017-05-10T12:00:38.881Z,310
2017-05-10T12:01:11.139Z,310
2017-05-10T12:01:43.403Z,315
2017-05-10T12:02:15.732Z,320
2017-05-10T12:02:48.008Z,325
2017-05-10T12:03:20.302Z,330
2017-05-10T12:03:52.615Z,330
2017-05-10T12:04:24.914Z,340
2017-05-10T12:04:57.224Z,340
2017-05-10T12:05:29.537Z,360
2017-05-10T12:06:01.828Z,310
2017-05-10T12:06:34.125Z,300
2017-05-10T12:07:06.421Z,310
2017-05-10T12:07:38.719Z,300
2017-05-10T12:08:11.020Z,300
2017-05-10T12:08:43.310Z,310
2017-05-10T12:09:15.592Z,335
2017-05-10T12:09:47.869Z,525
2017-05-10T12:10:20.174Z,335
2017-05-10T12:10:52.464Z,330
2017-05-10T12:11:24.759Z,385
2017-05-10T12:11:57.071Z,520
2017-05-10T12:12:29.376Z,435
2017-05-10T12:13:01.643Z,365
2017-05-10T12:13:34.596Z,485
2017-05-10T12:14:08.233Z,365
2017-05-10T12:14:40.499Z,585
2017-05-10T12:15:12.756Z,550
2017-05-10T12:15:45.005Z,455
2017-05-10T12:16:17.279Z,535
2017-05-10T12:16:50.085Z,620
2017-05-10T12:17:22.355Z,525
2017-05-10T12:17:55.164Z,440
2017-05-10T12:18:27.409Z,395
2017-05-10T12:18:59.672Z,365
2017-05-10T12:19:31.936Z,355
2017-05-10T12:20:04.807Z,515
2017-05-10T12:20:37.066Z,530
2017-05-10T12:21:10.740Z,545
2017-05-10T12:21:44.835Z,565
2017-05-10T12:22:17.115Z,565
2017-05-10T12:22:49.452Z,580
2017-05-10T12:23:21.776Z,595
2017-05-10T12:25:13.247Z,580
2017-05-10T12:25:45.545Z,460
2017-05-10T12:27:37.341Z,300
2017-05-10T12:28:09.662Z,325
2017-05-10T12:31:20.847Z,730
2017-05-10T12:31:53.182Z,570
2017-05-10T12:33:44.839Z,535
2017-05-10T12:34:17.141Z,765
2017-05-10T12:34:49.503Z,350
2017-05-10T12:35:22.662Z,330
2017-05-10T12:35:54.969Z,410
2017-05-10T12:36:27.366Z,725
2017-05-10T12:36:59.678Z,725
2017-05-10T12:37:31.974Z,390
2017-05-10T12:38:04.254Z,535
2017-05-10T12:38:36.564Z,650
2017-05-10T12:39:08.842Z,420
2017-05-10T12:39:41.144Z,705
2017-05-10T12:40:13.444Z,660
2017-05-10T12:40:45.721Z,320
2017-05-10T12:41:18.031Z,310
2017-05-10T12:41:50.327Z,310
2017-05-10T12:42:22.634Z,305
2017-05-10T12:42:54.946Z,300
2017-05-10T12:43:27.236Z,305
2017-05-10T12:43:59.534Z,320
2017-05-10T12:44:31.816Z,330
2017-05-10T12:45:04.100Z,335
2017-05-10T12:45:36.399Z,395
2017-05-10T12:46:08.701Z,640
2017-05-10T12:46:40.992Z,315
2017-05-10T12:47:13.290Z,295
2017-05-10T12:47:45.630Z,290
2017-05-10T12:48:17.921Z,300
2017-05-10T12:48:50.263Z,305
2017-05-10T12:49:22.544Z,315
2017-05-10T12:49:57.128Z,345
2017-05-10T12:50:29.413Z,425
2017-05-10T12:51:01.695Z,405
2017-05-10T12:51:33.983Z,370
2017-05-10T12:52:06.278Z,340
2017-05-10T12:52:38.583Z,410
2017-05-10T12:54:30.413Z,840
2017-05-10T12:55:02.711Z,845
2017-05-10T12:55:35.091Z,880
2017-05-10T12:56:07.516Z,895
2017-05-10T12:57:59.251Z,925
2017-05-10T12:58:31.553Z,920
2017-05-10T12:59:03.867Z,920
2017-05-10T12:59:36.159Z,910
2017-05-10T13:00:08.473Z,915
2017-05-10T13:00:40.771Z,740
2017-05-10T13:01:13.047Z,840
2017-05-10T13:01:45.343Z,850
2017-05-10T13:02:17.776Z,895
2017-05-10T13:02:50.075Z,905
2017-05-10T13:03:22.425Z,875
2017-05-10T13:03:54.787Z,895
2017-05-10T13:05:46.321Z,625
2017-05-10T13:06:18.615Z,855
2017-05-10T13:08:10.375Z,775
2017-05-10T13:08:42.673Z,930
2017-05-10T13:09:15.010Z,385
2017-05-10T13:11:06.786Z,1035
2017-05-10T13:11:39.087Z,440
2017-05-10T13:12:11.381Z,330
2017-05-10T13:12:43.715Z,335
2017-05-10T13:13:16.019Z,400
2017-05-10T13:13:48.325Z,865
2017-05-10T13:14:20.635Z,600
2017-05-10T13:14:52.929Z,730
2017-05-10T13:15:25.237Z,570
2017-05-10T13:17:16.983Z,950
2017-05-10T13:17:49.278Z,960
2017-05-10T13:18:21.607Z,965
2017-05-10T13:18:53.897Z,940
2017-05-10T13:19:26.200Z,940
2017-05-10T13:19:58.497Z,935
2017-05-10T13:20:30.996Z,930
2017-05-10T13:21:03.292Z,945
2017-05-10T13:22:54.815Z,975
2017-05-10T13:23:27.117Z,990
2017-05-10T13:23:59.406Z,975
2017-05-10T13:24:31.717Z,985
2017-05-10T13:25:04.021Z,990
2017-05-10T13:26:55.810Z,895
2017-05-10T13:27:28.132Z,945
2017-05-10T13:28:00.439Z,955
2017-05-10T13:28:32.724Z,955
2017-05-10T13:29:05.020Z,965
2017-05-10T13:29:37.340Z,955
2017-05-10T13:30:09.643Z,940
2017-05-10T13:30:41.949Z,955
2017-05-10T13:31:14.278Z,965
2017-05-10T13:31:46.572Z,960
2017-05-10T13:32:19.035Z,790
2017-05-10T13:32:51.368Z,940
2017-05-10T13:33:23.625Z,935
2017-05-10T13:33:55.893Z,930
2017-05-10T13:34:28.160Z,925
2017-05-10T13:35:00.409Z,900
2017-05-10T13:35:32.661Z,910
2017-05-10T13:36:04.925Z,915
2017-05-10T13:36:37.276Z,930
2017-05-10T13:37:09.738Z,910
2017-05-10T13:37:42.867Z,920
2017-05-10T13:38:15.132Z,920
2017-05-10T13:38:47.419Z,930
2017-05-10T13:39:19.722Z,890
2017-05-10T13:39:52.024Z,905
2017-05-10T13:40:24.327Z,940
2017-05-10T13:40:56.603Z,870
2017-05-10T13:41:28.870Z,865
2017-05-10T13:42:01.135Z,900
2017-05-10T13:42:33.386Z,910
2017-05-10T13:43:06.356Z,850
2017-05-10T13:43:38.611Z,910
2017-05-10T13:44:11.759Z,920
2017-05-10T13:44:44.109Z,890
2017-05-10T13:45:17.242Z,910
2017-05-10T13:45:49.489Z,940